Terminal Aerodrome Forecast
Issued by NWS

Home | Current Version | Previous Version | Text Only | Print | Product List | Glossary On
Versions: 1 2 3 4 5 6 7 8 9 10 11 12 13 14 15 16 17 18 19
000
FTUS46 KPDT 260600 AAA
TAFALW
TAF AMD
KALW 260617Z 2606/2706 20023KT P6SM -SHRA BKN060 OVC080
     FM261000 22015KT P6SM VCSH OVC050
     FM261300 20015G25KT P6SM VCSH BKN040
     FM262000 22020G30KT P6SM VCSH SCT040 BKN060
     FM270000 21014G20KT P6SM VCSH BKN040=

USA.gov is the U.S. government's official web portal to all federal, state and local government web resources and services.